sensor_id;sensor_type;location;lat;lon;timestamp;P1;P4;P2;P0;N10;N4;N25;N1;N05;TS
66725;SPS30;53638;51.062;5.804;2023-07-30T00:00:45;2.61;2.59;2.55;2.37;18.90;18.90;18.88;18.81;16.64;0.46
66725;SPS30;53638;51.062;5.804;2023-07-30T00:03:10;2.63;2.61;2.58;2.40;19.20;19.20;19.19;19.12;16.94;0.46
66725;SPS30;53638;51.062;5.804;2023-07-30T00:05:36;2.43;2.41;2.36;2.19;17.46;17.46;17.44;17.37;15.35;0.46
66725;SPS30;53638;51.062;5.804;2023-07-30T00:08:02;2.78;2.76;2.71;2.51;20.04;20.03;20.02;19.94;17.63;0.47
66725;SPS30;53638;51.062;5.804;2023-07-30T00:10:28;2.85;2.82;2.77;2.56;20.43;20.42;20.41;20.31;17.95;0.47
66725;SPS30;53638;51.062;5.804;2023-07-30T00:12:54;2.95;2.91;2.82;2.57;20.50;20.49;20.47;20.33;17.89;0.49
66725;SPS30;53638;51.062;5.804;2023-07-30T00:15:20;2.77;2.73;2.66;2.43;19.39;19.38;19.36;19.25;16.95;0.48
66725;SPS30;53638;51.062;5.804;2023-07-30T00:17:46;2.94;2.90;2.83;2.59;20.68;20.67;20.65;20.53;18.10;0.49
66725;SPS30;53638;51.062;5.804;2023-07-30T00:20:12;2.86;2.83;2.77;2.54;20.30;20.29;20.27;20.17;17.79;0.48
66725;SPS30;53638;51.062;5.804;2023-07-30T00:22:38;2.69;2.68;2.65;2.47;19.72;19.71;19.70;19.64;17.40;0.45
66725;SPS30;53638;51.062;5.804;2023-07-30T00:25:04;2.64;2.63;2.62;2.46;19.63;19.62;19.61;19.57;17.37;0.44
66725;SPS30;53638;51.062;5.804;2023-07-30T00:27:30;2.69;2.66;2.62;2.42;19.31;19.31;19.29;19.21;16.98;0.46
66725;SPS30;53638;51.062;5.804;2023-07-30T00:29:56;2.91;2.90;2.86;2.67;21.31;21.31;21.30;21.23;18.80;0.46
66725;SPS30;53638;51.062;5.804;2023-07-30T00:32:22;2.75;2.73;2.69;2.51;20.01;20.00;19.99;19.92;17.64;0.46
66725;SPS30;53638;51.062;5.804;2023-07-30T00:34:49;2.88;2.87;2.83;2.64;21.06;21.06;21.04;20.97;18.57;0.46
66725;SPS30;53638;51.062;5.804;2023-07-30T00:37:14;2.68;2.67;2.67;2.51;20.04;20.04;20.03;19.99;17.75;0.45
66725;SPS30;53638;51.062;5.804;2023-07-30T00:39:40;3.04;3.02;2.99;2.79;22.30;22.30;22.29;22.22;19.69;0.46
66725;SPS30;53638;51.062;5.804;2023-07-30T00:42:06;2.60;2.59;2.57;2.42;19.31;19.31;19.30;19.26;17.09;0.45
66725;SPS30;53638;51.062;5.804;2023-07-30T00:44:32;2.82;2.80;2.76;2.56;20.41;20.41;20.39;20.31;17.96;0.45
66725;SPS30;53638;51.062;5.804;2023-07-30T00:46:58;2.65;2.63;2.59;2.40;19.18;19.18;19.16;19.09;16.89;0.45
66725;SPS30;53638;51.062;5.804;2023-07-30T00:49:24;2.78;2.78;2.77;2.61;20.82;20.82;20.81;20.77;18.45;0.44
66725;SPS30;53638;51.062;5.804;2023-07-30T00:51:50;2.98;2.96;2.92;2.71;21.64;21.63;21.62;21.54;19.06;0.45
66725;SPS30;53638;51.062;5.804;2023-07-30T00:54:16;3.00;2.96;2.88;2.64;21.08;21.08;21.06;20.93;18.45;0.46
66725;SPS30;53638;51.062;5.804;2023-07-30T00:56:44;2.85;2.82;2.76;2.53;20.23;20.23;20.21;20.10;17.74;0.47
66725;SPS30;53638;51.062;5.804;2023-07-30T00:59:17;2.99;2.95;2.87;2.62;20.91;20.90;20.88;20.75;18.27;0.48
66725;SPS30;53638;51.062;5.804;2023-07-30T01:01:45;2.89;2.85;2.77;2.53;20.20;20.20;20.17;20.05;17.66;0.49
66725;SPS30;53638;51.062;5.804;2023-07-30T01:04:14;2.52;2.49;2.43;2.23;17.82;17.82;17.80;17.71;15.62;0.47
66725;SPS30;53638;51.062;5.804;2023-07-30T01:06:40;2.61;2.58;2.53;2.34;18.68;18.67;18.66;18.57;16.41;0.47
66725;SPS30;53638;51.062;5.804;2023-07-30T01:09:06;2.57;2.56;2.53;2.37;18.89;18.88;18.87;18.82;16.67;0.45
66725;SPS30;53638;51.062;5.804;2023-07-30T01:11:32;2.89;2.86;2.82;2.62;20.90;20.90;20.88;20.80;18.40;0.46
66725;SPS30;53638;51.062;5.804;2023-07-30T01:13:59;2.83;2.80;2.73;2.51;20.05;20.04;20.03;19.92;17.57;0.46
66725;SPS30;53638;51.062;5.804;2023-07-30T01:16:25;2.80;2.77;2.70;2.49;19.85;19.84;19.82;19.72;17.40;0.46
66725;SPS30;53638;51.062;5.804;2023-07-30T01:18:51;2.70;2.68;2.63;2.43;19.42;19.41;19.40;19.31;17.07;0.46
66725;SPS30;53638;51.062;5.804;2023-07-30T01:21:17;2.73;2.70;2.65;2.45;19.54;19.54;19.52;19.43;17.17;0.47
66725;SPS30;53638;51.062;5.804;2023-07-30T01:23:43;2.81;2.78;2.72;2.51;20.04;20.03;20.01;19.91;17.58;0.47
66725;SPS30;53638;51.062;5.804;2023-07-30T01:26:10;2.77;2.74;2.67;2.45;19.58;19.57;19.55;19.45;17.15;0.46
66725;SPS30;53638;51.062;5.804;2023-07-30T01:28:46;3.15;3.12;3.07;2.85;22.76;22.76;22.74;22.65;20.03;0.45
66725;SPS30;53638;51.062;5.804;2023-07-30T01:31:16;2.53;2.53;2.51;2.36;18.83;18.83;18.82;18.78;16.67;0.45
66725;SPS30;53638;51.062;5.804;2023-07-30T01:33:44;2.77;2.75;2.71;2.51;20.03;20.02;20.01;19.93;17.62;0.46
66725;SPS30;53638;51.062;5.804;2023-07-30T01:36:15;2.65;2.62;2.57;2.36;18.87;18.87;18.85;18.76;16.56;0.47
66725;SPS30;53638;51.062;5.804;2023-07-30T01:38:43;2.66;2.63;2.56;2.34;18.68;18.68;18.66;18.55;16.35;0.47
66725;SPS30;53638;51.062;5.804;2023-07-30T01:41:09;2.98;2.94;2.86;2.61;20.85;20.84;20.82;20.69;18.22;0.48
66725;SPS30;53638;51.062;5.804;2023-07-30T01:43:37;2.93;2.90;2.85;2.63;20.97;20.97;20.95;20.85;18.42;0.47
66725;SPS30;53638;51.062;5.804;2023-07-30T01:46:03;3.15;3.13;3.07;2.84;22.66;22.65;22.64;22.54;19.92;0.47
66725;SPS30;53638;51.062;5.804;2023-07-30T01:48:29;3.54;3.49;3.40;3.10;24.75;24.75;24.72;24.57;21.64;0.48
66725;SPS30;53638;51.062;5.804;2023-07-30T01:50:55;3.15;3.12;3.05;2.81;22.46;22.45;22.43;22.32;19.71;0.46
66725;SPS30;53638;51.062;5.804;2023-07-30T01:53:21;3.15;3.13;3.10;2.90;23.15;23.14;23.13;23.06;20.43;0.45
66725;SPS30;53638;51.062;5.804;2023-07-30T01:55:47;3.05;3.02;2.95;2.71;21.68;21.67;21.66;21.54;19.01;0.47
66725;SPS30;53638;51.062;5.804;2023-07-30T01:58:13;3.07;3.04;2.97;2.73;21.79;21.79;21.77;21.65;19.11;0.47
66725;SPS30;53638;51.062;5.804;2023-07-30T02:00:39;3.43;3.39;3.31;3.04;24.25;24.24;24.22;24.08;21.24;0.46
66725;SPS30;53638;51.062;5.804;2023-07-30T02:03:06;3.28;3.24;3.15;2.89;23.06;23.05;23.03;22.89;20.18;0.47
66725;SPS30;53638;51.062;5.804;2023-07-30T02:05:32;3.25;3.19;3.08;2.78;22.23;22.22;22.19;22.02;19.34;0.47
66725;SPS30;53638;51.062;5.804;2023-07-30T02:07:58;3.30;3.25;3.14;2.85;22.75;22.75;22.72;22.56;19.83;0.47
66725;SPS30;53638;51.062;5.804;2023-07-30T02:10:25;3.35;3.29;3.18;2.88;23.01;23.00;22.97;22.80;20.04;0.47
66725;SPS30;53638;51.062;5.804;2023-07-30T02:12:51;3.36;3.30;3.18;2.87;22.95;22.94;22.91;22.74;19.97;0.47
66725;SPS30;53638;51.062;5.804;2023-07-30T02:15:17;3.73;3.67;3.55;3.22;25.76;25.75;25.72;25.54;22.46;0.48
66725;SPS30;53638;51.062;5.804;2023-07-30T02:17:43;3.02;2.97;2.87;2.60;20.76;20.75;20.72;20.57;18.08;0.48
66725;SPS30;53638;51.062;5.804;2023-07-30T02:20:09;3.00;2.96;2.88;2.63;21.04;21.03;21.01;20.89;18.40;0.47
66725;SPS30;53638;51.062;5.804;2023-07-30T02:22:35;3.24;3.21;3.13;2.88;23.01;23.00;22.98;22.86;20.17;0.47
66725;SPS30;53638;51.062;5.804;2023-07-30T02:25:01;3.34;3.29;3.21;2.93;23.42;23.42;23.39;23.25;20.49;0.48
66725;SPS30;53638;51.062;5.804;2023-07-30T02:27:27;3.26;3.21;3.12;2.84;22.67;22.67;22.64;22.49;19.80;0.48
66725;SPS30;53638;51.062;5.804;2023-07-30T02:29:52;3.37;3.32;3.23;2.95;23.60;23.59;23.57;23.42;20.64;0.48
66725;SPS30;53638;51.062;5.804;2023-07-30T02:32:18;3.67;3.62;3.51;3.19;25.46;25.46;25.43;25.26;22.22;0.48
66725;SPS30;53638;51.062;5.804;2023-07-30T02:34:44;3.54;3.47;3.34;3.01;24.05;24.05;24.01;23.82;20.90;0.49
66725;SPS30;53638;51.062;5.804;2023-07-30T02:37:10;3.30;3.25;3.15;2.86;22.83;22.83;22.80;22.64;19.91;0.48
66725;SPS30;53638;51.062;5.804;2023-07-30T02:39:36;3.60;3.52;3.37;3.02;24.14;24.13;24.09;23.88;20.92;0.48
66725;SPS30;53638;51.062;5.804;2023-07-30T02:42:02;3.46;3.36;3.16;2.76;22.05;22.04;21.99;21.72;18.88;0.49
66725;SPS30;53638;51.062;5.804;2023-07-30T02:44:28;3.67;3.57;3.36;2.94;23.48;23.47;23.42;23.13;20.13;0.49
66725;SPS30;53638;51.062;5.804;2023-07-30T02:46:54;3.14;3.05;2.90;2.56;20.43;20.42;20.38;20.16;17.59;0.49
66725;SPS30;53638;51.062;5.804;2023-07-30T02:49:20;3.31;3.22;3.04;2.67;21.33;21.32;21.27;21.03;18.32;0.50
66725;SPS30;53638;51.062;5.804;2023-07-30T02:51:45;3.91;3.79;3.55;3.09;24.67;24.66;24.60;24.28;21.08;0.50
66725;SPS30;53638;51.062;5.804;2023-07-30T02:54:14;3.79;3.68;3.46;3.02;24.15;24.14;24.09;23.79;20.69;0.49
66725;SPS30;53638;51.062;5.804;2023-07-30T02:56:42;3.70;3.56;3.29;2.81;22.46;22.45;22.38;22.03;19.02;0.50
66725;SPS30;53638;51.062;5.804;2023-07-30T02:59:08;3.58;3.43;3.16;2.67;21.35;21.34;21.27;20.91;18.00;0.52
66725;SPS30;53638;51.062;5.804;2023-07-30T03:01:34;3.52;3.39;3.12;2.64;21.11;21.10;21.04;20.68;17.82;0.53
66725;SPS30;53638;51.062;5.804;2023-07-30T03:04:01;3.59;3.45;3.18;2.69;21.53;21.51;21.45;21.09;18.17;0.53
66725;SPS30;53638;51.062;5.804;2023-07-30T03:06:27;3.69;3.53;3.23;2.71;21.67;21.65;21.58;21.18;18.19;0.52
66725;SPS30;53638;51.062;5.804;2023-07-30T03:08:53;4.00;3.84;3.51;2.96;23.65;23.63;23.56;23.13;19.89;0.53
66725;SPS30;53638;51.062;5.804;2023-07-30T03:11:19;3.74;3.59;3.31;2.80;22.41;22.40;22.33;21.96;18.92;0.53
66725;SPS30;53638;51.062;5.804;2023-07-30T03:13:45;3.49;3.36;3.12;2.66;21.29;21.28;21.22;20.89;18.05;0.53
66725;SPS30;53638;51.062;5.804;2023-07-30T03:16:11;3.27;3.16;2.95;2.55;20.40;20.39;20.34;20.05;17.38;0.52
66725;SPS30;53638;51.062;5.804;2023-07-30T03:18:37;3.54;3.42;3.18;2.74;21.92;21.91;21.85;21.54;18.65;0.52
66725;SPS30;53638;51.062;5.804;2023-07-30T03:21:03;3.52;3.39;3.14;2.69;21.49;21.48;21.42;21.09;18.22;0.52
66725;SPS30;53638;51.062;5.804;2023-07-30T03:23:29;3.39;3.25;2.97;2.49;19.93;19.92;19.85;19.49;16.74;0.53
66725;SPS30;53638;51.062;5.804;2023-07-30T03:25:54;3.26;3.14;2.92;2.50;20.00;19.98;19.93;19.63;16.97;0.53
66725;SPS30;53638;51.062;5.804;2023-07-30T03:28:20;3.76;3.61;3.33;2.83;22.61;22.59;22.53;22.15;19.10;0.55
66725;SPS30;53638;51.062;5.804;2023-07-30T03:30:46;3.43;3.30;3.05;2.59;20.72;20.71;20.65;20.31;17.52;0.53
66725;SPS30;53638;51.062;5.804;2023-07-30T03:33:12;3.38;3.24;2.96;2.48;19.79;19.78;19.71;19.34;16.60;0.54
66725;SPS30;53638;51.062;5.804;2023-07-30T03:35:38;3.25;3.13;2.89;2.46;19.65;19.63;19.58;19.26;16.61;0.54
66725;SPS30;53638;51.062;5.804;2023-07-30T03:38:05;3.03;2.93;2.75;2.40;19.15;19.14;19.09;18.85;16.37;0.52
66725;SPS30;53638;51.062;5.804;2023-07-30T03:40:31;3.16;3.07;2.88;2.52;20.12;20.11;20.07;19.82;17.23;0.51
66725;SPS30;53638;51.062;5.804;2023-07-30T03:42:57;3.16;3.06;2.87;2.49;19.89;19.88;19.83;19.57;16.99;0.51
66725;SPS30;53638;51.062;5.804;2023-07-30T03:45:23;2.96;2.88;2.72;2.39;19.12;19.11;19.07;18.85;16.43;0.52
66725;SPS30;53638;51.062;5.804;2023-07-30T03:47:49;3.13;3.03;2.83;2.45;19.57;19.56;19.51;19.24;16.69;0.54
66725;SPS30;53638;51.062;5.804;2023-07-30T03:50:14;2.95;2.84;2.63;2.24;17.91;17.90;17.85;17.56;15.17;0.55
66725;SPS30;53638;51.062;5.804;2023-07-30T03:52:40;2.96;2.83;2.58;2.16;17.28;17.27;17.21;16.88;14.49;0.55
66725;SPS30;53638;51.062;5.804;2023-07-30T03:55:07;3.26;3.09;2.77;2.26;18.07;18.05;17.98;17.56;14.94;0.58
66725;SPS30;53638;51.062;5.804;2023-07-30T03:57:33;3.11;2.95;2.62;2.10;16.82;16.80;16.73;16.31;13.80;0.59
66725;SPS30;53638;51.062;5.804;2023-07-30T04:00:02;2.78;2.62;2.30;1.81;14.52;14.50;14.43;14.02;11.79;0.60
66725;SPS30;53638;51.062;5.804;2023-07-30T04:02:29;3.11;2.93;2.57;2.02;16.19;16.17;16.09;15.64;13.15;0.59
66725;SPS30;53638;51.062;5.804;2023-07-30T04:04:54;2.83;2.67;2.37;1.89;15.11;15.10;15.03;14.64;12.37;0.57
66725;SPS30;53638;51.062;5.804;2023-07-30T04:07:20;2.47;2.35;2.10;1.71;13.67;13.65;13.60;13.28;11.29;0.56
66725;SPS30;53638;51.062;5.804;2023-07-30T04:09:46;2.54;2.41;2.15;1.74;13.93;13.91;13.85;13.52;11.47;0.56
66725;SPS30;53638;51.062;5.804;2023-07-30T04:12:12;2.53;2.37;2.08;1.63;13.02;13.01;12.94;12.56;10.54;0.58
66725;SPS30;53638;51.062;5.804;2023-07-30T04:14:38;2.47;2.31;2.01;1.56;12.45;12.43;12.36;11.98;10.01;0.59
66725;SPS30;53638;51.062;5.804;2023-07-30T04:17:04;2.39;2.24;1.94;1.50;12.01;12.00;11.93;11.55;9.65;0.60
66725;SPS30;53638;51.062;5.804;2023-07-30T04:19:30;2.80;2.61;2.24;1.69;13.56;13.54;13.46;12.99;10.77;0.62
66725;SPS30;53638;51.062;5.804;2023-07-30T04:21:56;2.58;2.39;2.04;1.52;12.14;12.12;12.04;11.59;9.55;0.62
66725;SPS30;53638;51.062;5.804;2023-07-30T04:24:22;2.66;2.47;2.09;1.56;12.45;12.44;12.35;11.88;9.78;0.63
66725;SPS30;53638;51.062;5.804;2023-07-30T04:26:48;2.49;2.31;1.95;1.44;11.55;11.53;11.45;11.00;9.02;0.64
66725;SPS30;53638;51.062;5.804;2023-07-30T04:29:14;2.63;2.44;2.07;1.53;12.21;12.20;12.11;11.64;9.55;0.65
66725;SPS30;53638;51.062;5.804;2023-07-30T04:31:42;2.37;2.20;1.86;1.37;10.99;10.98;10.90;10.47;8.59;0.65
66725;SPS30;53638;51.062;5.804;2023-07-30T04:34:07;2.37;2.21;1.89;1.42;11.38;11.37;11.30;10.89;9.00;0.64
66725;SPS30;53638;51.062;5.804;2023-07-30T04:36:33;2.16;2.02;1.74;1.32;10.60;10.59;10.53;10.17;8.45;0.65
66725;SPS30;53638;51.062;5.804;2023-07-30T04:38:59;2.31;2.16;1.85;1.41;11.27;11.26;11.19;10.80;8.96;0.64
66725;SPS30;53638;51.062;5.804;2023-07-30T04:41:30;2.33;2.18;1.89;1.45;11.58;11.56;11.50;11.12;9.26;0.64
66725;SPS30;53638;51.062;5.804;2023-07-30T04:43:57;2.21;2.06;1.77;1.35;10.81;10.80;10.73;10.37;8.61;0.64
66725;SPS30;53638;51.062;5.804;2023-07-30T04:46:24;2.12;1.97;1.68;1.26;10.07;10.06;9.99;9.62;7.94;0.65
66725;SPS30;53638;51.062;5.804;2023-07-30T04:48:51;2.26;2.10;1.79;1.34;10.70;10.68;10.61;10.22;8.42;0.65
66725;SPS30;53638;51.062;5.804;2023-07-30T04:51:18;2.31;2.14;1.81;1.33;10.66;10.64;10.57;10.15;8.32;0.66
66725;SPS30;53638;51.062;5.804;2023-07-30T04:53:46;2.07;1.92;1.63;1.21;9.71;9.69;9.63;9.26;7.62;0.65
66725;SPS30;53638;51.062;5.804;2023-07-30T04:56:12;1.98;1.85;1.58;1.19;9.52;9.50;9.44;9.11;7.53;0.64
66725;SPS30;53638;51.062;5.804;2023-07-30T04:58:38;2.18;2.03;1.72;1.28;10.26;10.24;10.17;9.79;8.06;0.67
66725;SPS30;53638;51.062;5.804;2023-07-30T05:01:03;2.26;2.08;1.72;1.22;9.80;9.79;9.71;9.26;7.48;0.70
66725;SPS30;53638;51.062;5.804;2023-07-30T05:03:29;2.24;2.06;1.70;1.21;9.67;9.66;9.58;9.13;7.37;0.69
66725;SPS30;53638;51.062;5.804;2023-07-30T05:05:55;2.01;1.86;1.56;1.13;9.05;9.03;8.96;8.59;7.00;0.67
66725;SPS30;53638;51.062;5.804;2023-07-30T05:08:21;2.24;2.06;1.73;1.25;10.01;9.99;9.91;9.49;7.72;0.67
66725;SPS30;53638;51.062;5.804;2023-07-30T05:10:47;2.24;2.07;1.72;1.24;9.94;9.93;9.85;9.42;7.65;0.68
66725;SPS30;53638;51.062;5.804;2023-07-30T05:13:13;2.60;2.38;1.95;1.35;10.83;10.82;10.72;10.18;8.14;0.71
66725;SPS30;53638;51.062;5.804;2023-07-30T05:15:38;2.30;2.12;1.75;1.24;9.97;9.95;9.87;9.41;7.60;0.68
66725;SPS30;53638;51.062;5.804;2023-07-30T05:18:04;2.48;2.28;1.89;1.35;10.83;10.81;10.73;10.24;8.29;0.68
66725;SPS30;53638;51.062;5.804;2023-07-30T05:20:30;2.54;2.32;1.91;1.32;10.61;10.59;10.50;9.98;7.98;0.69
66725;SPS30;53638;51.062;5.804;2023-07-30T05:22:56;2.76;2.53;2.09;1.47;11.76;11.74;11.64;11.09;8.91;0.68
66725;SPS30;53638;51.062;5.804;2023-07-30T05:25:22;2.74;2.53;2.11;1.52;12.19;12.17;12.08;11.55;9.39;0.66
66725;SPS30;53638;51.062;5.804;2023-07-30T05:27:48;2.17;2.00;1.66;1.20;9.58;9.56;9.49;9.07;7.36;0.67
66725;SPS30;53638;51.062;5.804;2023-07-30T05:30:14;2.49;2.29;1.90;1.36;10.86;10.84;10.75;10.26;8.30;0.69
66725;SPS30;53638;51.062;5.804;2023-07-30T05:32:40;2.40;2.22;1.85;1.33;10.67;10.65;10.57;10.11;8.21;0.67
66725;SPS30;53638;51.062;5.804;2023-07-30T05:35:06;2.24;2.06;1.72;1.24;9.90;9.88;9.80;9.37;7.61;0.67
66725;SPS30;53638;51.062;5.804;2023-07-30T05:37:32;2.32;2.13;1.77;1.27;10.14;10.13;10.04;9.59;7.76;0.68
66725;SPS30;53638;51.062;5.804;2023-07-30T05:39:58;2.40;2.21;1.83;1.30;10.39;10.37;10.29;9.81;7.91;0.68
66725;SPS30;53638;51.062;5.804;2023-07-30T05:42:23;2.54;2.33;1.93;1.36;10.90;10.88;10.79;10.28;8.29;0.68
66725;SPS30;53638;51.062;5.804;2023-07-30T05:44:49;2.35;2.17;1.80;1.28;10.26;10.25;10.17;9.70;7.85;0.67
66725;SPS30;53638;51.062;5.804;2023-07-30T05:47:15;2.30;2.12;1.76;1.25;10.02;10.00;9.92;9.47;7.65;0.68
66725;SPS30;53638;51.062;5.804;2023-07-30T05:49:41;2.20;2.02;1.68;1.19;9.56;9.55;9.47;9.04;7.30;0.67
66725;SPS30;53638;51.062;5.804;2023-07-30T05:52:07;2.16;1.99;1.66;1.19;9.52;9.50;9.43;9.01;7.31;0.67
66725;SPS30;53638;51.062;5.804;2023-07-30T05:54:33;2.89;2.67;2.22;1.60;12.79;12.77;12.67;12.11;9.83;0.66
66725;SPS30;53638;51.062;5.804;2023-07-30T05:57:00;2.46;2.26;1.87;1.33;10.61;10.60;10.51;10.02;8.08;0.67
66725;SPS30;53638;51.062;5.804;2023-07-30T05:59:29;2.98;2.74;2.27;1.61;12.88;12.86;12.75;12.16;9.82;0.67
66725;SPS30;53638;51.062;5.804;2023-07-30T06:01:55;2.42;2.23;1.84;1.30;10.44;10.42;10.33;9.85;7.94;0.67
66725;SPS30;53638;51.062;5.804;2023-07-30T06:04:23;2.53;2.34;1.95;1.41;11.30;11.28;11.19;10.71;8.71;0.66
66725;SPS30;53638;51.062;5.804;2023-07-30T06:06:49;2.87;2.64;2.19;1.56;12.48;12.46;12.36;11.80;9.54;0.69
66725;SPS30;53638;51.062;5.804;2023-07-30T06:09:15;2.56;2.35;1.95;1.38;11.07;11.05;10.96;10.45;8.44;0.69
66725;SPS30;53638;51.062;5.804;2023-07-30T06:11:41;2.62;2.41;2.01;1.44;11.53;11.52;11.43;10.92;8.85;0.68
66725;SPS30;53638;51.062;5.804;2023-07-30T06:14:07;2.67;2.46;2.05;1.47;11.80;11.78;11.69;11.18;9.07;0.67
66725;SPS30;53638;51.062;5.804;2023-07-30T06:16:32;2.67;2.45;2.02;1.43;11.45;11.43;11.33;10.80;8.70;0.67
66725;SPS30;53638;51.062;5.804;2023-07-30T06:18:58;2.59;2.37;1.95;1.37;10.96;10.94;10.85;10.32;8.29;0.69
66725;SPS30;53638;51.062;5.804;2023-07-30T06:21:24;3.03;2.78;2.28;1.58;12.68;12.66;12.55;11.92;9.54;0.70
66725;SPS30;53638;51.062;5.804;2023-07-30T06:23:50;2.78;2.54;2.07;1.42;11.38;11.36;11.25;10.66;8.48;0.71
66725;SPS30;53638;51.062;5.804;2023-07-30T06:26:16;2.89;2.64;2.14;1.45;11.62;11.59;11.48;10.86;8.59;0.71
66725;SPS30;53638;51.062;5.804;2023-07-30T06:28:42;3.21;2.93;2.37;1.60;12.80;12.78;12.65;11.95;9.44;0.70
66725;SPS30;53638;51.062;5.804;2023-07-30T06:31:08;3.07;2.79;2.24;1.50;12.01;11.99;11.87;11.18;8.78;0.71
66725;SPS30;53638;51.062;5.804;2023-07-30T06:33:34;3.32;3.01;2.42;1.61;12.90;12.87;12.74;12.00;9.40;0.72
66725;SPS30;53638;51.062;5.804;2023-07-30T06:36:00;3.59;3.27;2.65;1.80;14.39;14.36;14.22;13.44;10.63;0.70
66725;SPS30;53638;51.062;5.804;2023-07-30T06:38:26;3.18;2.91;2.38;1.64;13.15;13.12;13.00;12.33;9.84;0.70
66725;SPS30;53638;51.062;5.804;2023-07-30T06:40:52;3.79;3.45;2.80;1.91;15.33;15.30;15.16;14.35;11.38;0.70
66725;SPS30;53638;51.062;5.804;2023-07-30T06:43:18;3.00;2.75;2.26;1.58;12.65;12.63;12.52;11.91;9.55;0.68
66725;SPS30;53638;51.062;5.804;2023-07-30T06:45:44;3.58;3.27;2.66;1.83;14.67;14.64;14.51;13.75;10.94;0.71
66725;SPS30;53638;51.062;5.804;2023-07-30T06:48:09;4.37;3.96;3.15;2.06;16.54;16.51;16.33;15.32;11.92;0.74
66725;SPS30;53638;51.062;5.804;2023-07-30T06:50:35;3.97;3.59;2.83;1.82;14.59;14.55;14.39;13.45;10.36;0.76
66725;SPS30;53638;51.062;5.804;2023-07-30T06:53:01;4.43;4.00;3.17;2.04;16.34;16.31;16.12;15.07;11.63;0.76
66725;SPS30;53638;51.062;5.804;2023-07-30T06:55:27;4.44;4.00;3.14;1.99;15.95;15.91;15.72;14.65;11.20;0.77
66725;SPS30;53638;51.062;5.804;2023-07-30T06:57:53;4.64;4.17;3.27;2.06;16.49;16.46;16.25;15.12;11.53;0.78
66725;SPS30;53638;51.062;5.804;2023-07-30T07:00:19;4.03;3.66;2.93;1.94;15.58;15.55;15.39;14.48;11.33;0.74
66725;SPS30;53638;51.062;5.804;2023-07-30T07:02:47;4.12;3.78;3.12;2.19;17.58;17.55;17.40;16.56;13.32;0.70
66725;SPS30;53638;51.062;5.804;2023-07-30T07:05:14;4.02;3.68;3.03;2.12;16.99;16.96;16.82;16.00;12.84;0.71
66725;SPS30;53638;51.062;5.804;2023-07-30T07:07:40;4.02;3.67;2.98;2.03;16.25;16.22;16.07;15.20;12.05;0.72
66725;SPS30;53638;51.062;5.804;2023-07-30T07:10:06;3.87;3.54;2.88;1.97;15.76;15.73;15.58;14.75;11.72;0.71
66725;SPS30;53638;51.062;5.804;2023-07-30T07:12:32;4.54;4.14;3.36;2.29;18.36;18.33;18.16;17.18;13.62;0.71
66725;SPS30;53638;51.062;5.804;2023-07-30T07:14:58;3.85;3.53;2.92;2.06;16.49;16.46;16.32;15.55;12.52;0.69
66725;SPS30;53638;51.062;5.804;2023-07-30T07:17:27;3.98;3.65;3.00;2.10;16.86;16.83;16.69;15.88;12.75;0.69
66725;SPS30;53638;51.062;5.804;2023-07-30T07:19:53;4.40;4.02;3.28;2.25;18.01;17.98;17.81;16.87;13.42;0.70
66725;SPS30;53638;51.062;5.804;2023-07-30T07:22:19;5.12;4.66;3.76;2.53;20.27;20.23;20.03;18.90;14.90;0.71
66725;SPS30;53638;51.062;5.804;2023-07-30T07:24:45;4.47;4.07;3.29;2.23;17.87;17.84;17.66;16.69;13.19;0.71
66725;SPS30;53638;51.062;5.804;2023-07-30T07:27:11;4.27;3.90;3.19;2.21;17.69;17.66;17.50;16.61;13.26;0.69
66725;SPS30;53638;51.062;5.804;2023-07-30T07:29:37;4.65;4.24;3.46;2.37;18.99;18.96;18.78;17.80;14.15;0.69
66725;SPS30;53638;51.062;5.804;2023-07-30T07:32:03;5.34;4.85;3.89;2.60;20.81;20.77;20.55;19.36;15.19;0.70
66725;SPS30;53638;51.062;5.804;2023-07-30T07:34:29;4.84;4.37;3.47;2.25;18.05;18.01;17.80;16.68;12.91;0.71
66725;SPS30;53638;51.062;5.804;2023-07-30T07:36:55;5.19;4.71;3.75;2.47;19.77;19.73;19.52;18.33;14.28;0.71
66725;SPS30;53638;51.062;5.804;2023-07-30T07:39:21;5.19;4.71;3.76;2.48;19.86;19.82;19.61;18.43;14.38;0.72
66725;SPS30;53638;51.062;5.804;2023-07-30T07:41:47;4.80;4.32;3.40;2.15;17.28;17.24;17.03;15.88;12.15;0.75
66725;SPS30;53638;51.062;5.804;2023-07-30T07:44:13;5.76;5.19;4.06;2.55;20.49;20.44;20.19;18.78;14.31;0.75
66725;SPS30;53638;51.062;5.804;2023-07-30T07:46:39;5.10;4.60;3.63;2.32;18.63;18.59;18.37;17.16;13.20;0.74
66725;SPS30;53638;51.062;5.804;2023-07-30T07:49:06;5.05;4.58;3.66;2.41;19.30;19.26;19.05;17.90;13.96;0.73
66725;SPS30;53638;51.062;5.804;2023-07-30T07:51:34;4.72;4.30;3.47;2.33;18.71;18.68;18.49;17.45;13.76;0.71
66725;SPS30;53638;51.062;5.804;2023-07-30T07:54:00;4.71;4.29;3.48;2.36;18.90;18.86;18.68;17.66;13.97;0.70
66725;SPS30;53638;51.062;5.804;2023-07-30T07:56:26;5.17;4.70;3.80;2.55;20.46;20.42;20.21;19.08;15.03;0.71
66725;SPS30;53638;51.062;5.804;2023-07-30T07:58:52;5.79;5.24;4.15;2.68;21.53;21.49;21.24;19.89;15.38;0.75
66725;SPS30;53638;51.062;5.804;2023-07-30T08:01:17;5.12;4.63;3.68;2.39;19.17;19.13;18.92;17.73;13.74;0.73
66725;SPS30;53638;51.062;5.804;2023-07-30T08:03:43;5.21;4.74;3.80;2.54;20.33;20.29;20.08;18.91;14.84;0.72
66725;SPS30;53638;51.062;5.804;2023-07-30T08:06:09;5.48;4.97;3.99;2.65;21.22;21.18;20.96;19.73;15.45;0.72
66725;SPS30;53638;51.062;5.804;2023-07-30T08:08:35;4.58;4.17;3.37;2.26;18.15;18.11;17.93;16.92;13.34;0.72
66725;SPS30;53638;51.062;5.804;2023-07-30T08:11:05;4.16;3.80;3.09;2.12;16.95;16.92;16.76;15.87;12.61;0.71
66725;SPS30;53638;51.062;5.804;2023-07-30T08:13:32;5.00;4.56;3.68;2.49;19.95;19.91;19.71;18.62;14.70;0.70
66725;SPS30;53638;51.062;5.804;2023-07-30T08:15:59;5.73;5.19;4.14;2.71;21.74;21.69;21.45;20.14;15.67;0.72
66725;SPS30;53638;51.062;5.804;2023-07-30T08:18:25;5.24;4.74;3.76;2.44;19.54;19.49;19.28;18.05;13.98;0.73
66725;SPS30;53638;51.062;5.804;2023-07-30T08:20:52;5.03;4.54;3.58;2.29;18.39;18.35;18.14;16.94;13.03;0.74
66725;SPS30;53638;51.062;5.804;2023-07-30T08:23:18;5.21;4.71;3.74;2.43;19.47;19.42;19.21;18.00;13.94;0.73
66725;SPS30;53638;51.062;5.804;2023-07-30T08:25:44;6.27;5.66;4.48;2.88;23.14;23.09;22.82;21.34;16.47;0.74
66725;SPS30;53638;51.062;5.804;2023-07-30T08:28:10;5.56;5.04;4.02;2.65;21.24;21.19;20.96;19.70;15.36;0.72
66725;SPS30;53638;51.062;5.804;2023-07-30T08:30:36;4.91;4.46;3.60;2.42;19.40;19.36;19.17;18.09;14.25;0.70
66725;SPS30;53638;51.062;5.804;2023-07-30T08:33:02;5.23;4.73;3.75;2.44;19.53;19.49;19.27;18.05;13.98;0.73
66725;SPS30;53638;51.062;5.804;2023-07-30T08:35:28;5.03;4.55;3.62;2.36;18.91;18.87;18.67;17.50;13.59;0.73
66725;SPS30;53638;51.062;5.804;2023-07-30T08:37:54;4.18;3.79;3.01;1.97;15.79;15.75;15.58;14.62;11.36;0.74
66725;SPS30;53638;51.062;5.804;2023-07-30T08:40:21;4.37;3.94;3.10;1.98;15.91;15.88;15.69;14.65;11.26;0.76
66725;SPS30;53638;51.062;5.804;2023-07-30T08:42:50;4.21;3.80;2.99;1.91;15.35;15.31;15.13;14.13;10.86;0.77
66725;SPS30;53638;51.062;5.804;2023-07-30T08:45:17;3.99;3.62;2.89;1.90;15.22;15.19;15.03;14.12;11.00;0.75
66725;SPS30;53638;51.062;5.804;2023-07-30T08:47:43;3.95;3.57;2.83;1.84;14.74;14.71;14.55;13.63;10.55;0.75
66725;SPS30;53638;51.062;5.804;2023-07-30T08:50:11;4.58;4.14;3.26;2.09;16.77;16.73;16.54;15.45;11.88;0.75
66725;SPS30;53638;51.062;5.804;2023-07-30T08:52:36;4.45;4.01;3.15;2.00;16.05;16.02;15.82;14.76;11.30;0.76
66725;SPS30;53638;51.062;5.804;2023-07-30T08:55:03;4.27;3.87;3.08;2.02;16.21;16.18;16.00;15.02;11.69;0.73
66725;SPS30;53638;51.062;5.804;2023-07-30T08:57:30;4.57;4.11;3.22;2.03;16.29;16.26;16.06;14.95;11.40;0.75
66725;SPS30;53638;51.062;5.804;2023-07-30T09:00:01;3.92;3.56;2.85;1.88;15.08;15.05;14.89;14.00;10.94;0.72
66725;SPS30;53638;51.062;5.804;2023-07-30T09:02:37;3.95;3.59;2.89;1.94;15.54;15.51;15.36;14.49;11.40;0.71
66725;SPS30;53638;51.062;5.804;2023-07-30T09:05:16;3.75;3.42;2.78;1.90;15.23;15.20;15.06;14.26;11.32;0.70
66725;SPS30;53638;51.062;5.804;2023-07-30T09:07:42;4.52;4.12;3.32;2.23;17.87;17.83;17.65;16.66;13.12;0.72
66725;SPS30;53638;51.062;5.804;2023-07-30T09:10:08;4.61;4.17;3.30;2.13;17.12;17.09;16.89;15.81;12.22;0.76